createdAt,value
2022-12-16T00:03:07.577Z,0.2
2022-12-16T00:08:52.864Z,0.3
2022-12-16T00:14:22.153Z,0.3
2022-12-16T00:20:00.252Z,0.4
2022-12-16T00:25:40.017Z,0.4
2022-12-16T00:31:22.691Z,0.4
2022-12-16T00:37:03.837Z,0.5
2022-12-16T00:42:42.188Z,0.5
2022-12-16T00:48:07.079Z,0.5
2022-12-16T00:53:14.940Z,0.6
2022-12-16T00:58:54.219Z,0.6
2022-12-16T01:04:19.219Z,0.6
2022-12-16T01:14:38.218Z,0.6
2022-12-16T01:19:30.352Z,0.6
2022-12-16T01:24:37.154Z,0.6
2022-12-16T01:30:17.804Z,0.6
2022-12-16T01:36:26.321Z,0.6
2022-12-16T01:42:08.011Z,0.6
2022-12-16T01:47:47.925Z,0.6
2022-12-16T01:53:09.583Z,0.6
2022-12-16T01:58:31.539Z,0.6
2022-12-16T02:03:56.174Z,0.6
2022-12-16T02:09:17.526Z,0.6
2022-12-16T02:14:40.842Z,0.7
2022-12-16T02:19:48.070Z,0.7
2022-12-16T02:30:07.232Z,0.7
2022-12-16T02:40:30.838Z,0.6
2022-12-16T02:46:11.901Z,0.6
2022-12-16T02:51:50.754Z,0.6
2022-12-16T02:57:12.404Z,0.6
2022-12-16T03:02:34.817Z,0.5
2022-12-16T03:08:13.543Z,0.5
2022-12-16T03:13:35.587Z,0.4
2022-12-16T03:19:14.072Z,0.4
2022-12-16T03:24:54.385Z,0.4
2022-12-16T03:30:16.492Z,0.4
2022-12-16T03:35:55.152Z,0.3
2022-12-16T03:41:17.365Z,0.3
2022-12-16T03:46:39.795Z,0.3
2022-12-16T03:52:23.802Z,0.3
2022-12-16T03:58:08.685Z,0.3
2022-12-16T04:03:49.423Z,0.3
2022-12-16T04:09:30.550Z,0.2
2022-12-16T04:15:10.911Z,0.2
2022-12-16T04:20:50.792Z,0.1
2022-12-16T04:26:29.982Z,0.1
2022-12-16T04:32:08.604Z,0.1
2022-12-16T04:37:46.846Z,0
2022-12-16T04:43:26.037Z,0.1
2022-12-16T04:48:52.785Z,0.1
2022-12-16T04:54:30.267Z,0.1
2022-12-16T04:59:36.161Z,0
2022-12-16T05:05:00.256Z,-0.1
2022-12-16T05:10:40.337Z,-0.1
2022-12-16T05:16:18.411Z,-0.1
2022-12-16T05:22:01.481Z,-0.2
2022-12-16T05:27:28.609Z,-0.3
2022-12-16T05:33:10.022Z,-0.2
2022-12-16T05:38:32.570Z,-0.2
2022-12-16T05:44:12.735Z,-0.3
2022-12-16T05:49:55.277Z,-0.2
2022-12-16T05:55:17.531Z,-0.3
2022-12-16T06:00:55.888Z,-0.3
2022-12-16T06:06:21.876Z,-0.3
2022-12-16T06:11:44.136Z,-0.3
2022-12-16T06:17:22.124Z,-0.2
2022-12-16T06:22:59.818Z,-0.1
2022-12-16T06:28:45.697Z,-0.1
2022-12-16T06:34:12.476Z,0.1
2022-12-16T06:39:53.028Z,0.1
2022-12-16T06:45:34.783Z,0.3
2022-12-16T06:51:18.683Z,0.4
2022-12-16T06:56:56.659Z,0.6
2022-12-16T07:02:10.805Z,0.8
2022-12-16T07:07:52.852Z,1.1
2022-12-16T07:13:36.488Z,1.3
2022-12-16T07:19:18.863Z,1.6
2022-12-16T07:25:07.700Z,2.3
2022-12-16T07:30:51.271Z,3.2
2022-12-16T07:36:34.811Z,4.3
2022-12-16T07:42:14.698Z,5.1
2022-12-16T07:47:55.403Z,5.7
2022-12-16T07:53:35.123Z,5.9
2022-12-16T07:59:13.284Z,6.3
2022-12-16T08:52:56.832Z,42.7
2022-12-16T08:58:39.338Z,47.8
2022-12-16T09:09:51.325Z,53.1
2022-12-16T09:15:31.997Z,44.8
2022-12-16T09:21:10.432Z,47.6
2022-12-16T09:26:55.133Z,54.1
2022-12-16T09:32:37.787Z,54.3
2022-12-16T09:38:25.038Z,49.4
2022-12-16T09:44:08.097Z,51.8
2022-12-16T09:49:48.360Z,55.9
2022-12-16T09:55:28.514Z,52.2
2022-12-16T10:06:35.300Z,53.2
2022-12-16T10:12:19.518Z,53.6
2022-12-16T10:18:04.586Z,54.3
2022-12-16T10:23:36.092Z,54.6
2022-12-16T10:29:20.925Z,55.2
2022-12-16T10:34:47.985Z,55.4
2022-12-16T10:40:35.934Z,56
2022-12-16T10:46:15.691Z,56.6
2022-12-16T10:52:14.556Z,57.2
2022-12-16T11:03:26.569Z,57.2
2022-12-16T11:09:05.995Z,55.9
2022-12-16T11:14:59.417Z,55.4
2022-12-16T11:20:52.622Z,55.9
2022-12-16T11:26:37.958Z,55.9
2022-12-16T11:32:19.065Z,56.3
2022-12-16T11:37:57.938Z,56.3
2022-12-16T11:43:45.630Z,56
2022-12-16T11:49:26.361Z,56.1
2022-12-16T11:55:13.473Z,56
2022-12-16T12:01:26.291Z,53.1
2022-12-16T12:06:57.380Z,54.8
2022-12-16T12:12:36.197Z,55.9
2022-12-16T12:18:19.856Z,56.3
2022-12-16T12:24:00.875Z,56.5
2022-12-16T12:29:44.891Z,56.1
2022-12-16T12:35:25.356Z,59.3
2022-12-16T12:46:49.747Z,49
2022-12-16T12:52:13.682Z,48.1
2022-12-16T12:57:44.037Z,47.4
2022-12-16T13:03:29.625Z,48
2022-12-16T13:09:09.055Z,47.2
2022-12-16T13:14:51.299Z,45.2
2022-12-16T13:20:38.114Z,42.8
2022-12-16T13:26:03.001Z,40.1
2022-12-16T13:31:43.865Z,37.8
2022-12-16T13:37:27.232Z,35.5
2022-12-16T13:43:09.307Z,32.9
2022-12-16T13:48:48.328Z,30.6
2022-12-16T13:54:29.483Z,28.5
2022-12-16T14:00:14.136Z,26.6
2022-12-16T14:05:43.742Z,24.8
2022-12-16T14:11:24.587Z,23.1
2022-12-16T14:16:48.844Z,21.8
2022-12-16T14:22:27.216Z,20.8
2022-12-16T14:28:37.551Z,19.8
2022-12-16T14:34:16.453Z,18.6
2022-12-16T14:39:59.537Z,17.6
2022-12-16T14:45:21.966Z,16.8
2022-12-16T14:51:08.539Z,15.8
2022-12-16T14:56:47.943Z,14.9
2022-12-16T15:02:29.507Z,14.3
2022-12-16T15:08:05.067Z,13.6
2022-12-16T15:13:46.974Z,12.9
2022-12-16T15:19:26.435Z,12.4
2022-12-16T15:25:08.930Z,11.8
2022-12-16T15:30:52.543Z,11.4
2022-12-16T15:36:20.132Z,10.9
2022-12-16T15:41:48.153Z,10.6
2022-12-16T15:47:25.816Z,10.3
2022-12-16T15:53:08.565Z,10.1
2022-12-16T15:58:51.901Z,10
2022-12-16T16:04:21.330Z,9.9
2022-12-16T16:10:05.248Z,9.7
2022-12-16T16:15:51.552Z,9.6
2022-12-16T16:21:32.651Z,9.4
2022-12-16T16:26:59.454Z,9.3
2022-12-16T16:32:22.535Z,9.1
2022-12-16T16:37:29.519Z,8.9
2022-12-16T16:43:07.631Z,8.7
2022-12-16T16:48:36.711Z,8.5
2022-12-16T16:54:02.948Z,8.3
2022-12-16T16:59:45.581Z,8.2
2022-12-16T17:05:33.227Z,8.1
2022-12-16T17:11:17.924Z,8.1
2022-12-16T17:17:04.270Z,7.9
2022-12-16T17:22:47.534Z,7.7
2022-12-16T17:28:31.802Z,7.5
2022-12-16T17:34:14.111Z,7.3
2022-12-16T17:39:42.259Z,7.2
2022-12-16T17:45:06.335Z,7
2022-12-16T17:50:47.658Z,6.9
2022-12-16T17:56:41.561Z,6.7
2022-12-16T18:02:04.524Z,6.6
2022-12-16T18:07:30.841Z,6.4
2022-12-16T18:12:38.227Z,6.3
2022-12-16T18:18:17.052Z,6.3
2022-12-16T18:23:39.241Z,6.2
2022-12-16T18:28:48.952Z,6.1
2022-12-16T18:34:31.529Z,6.1
2022-12-16T18:40:12.041Z,5.9
2022-12-16T18:45:56.609Z,5.8
2022-12-16T18:51:09.227Z,5.7
2022-12-16T18:56:31.713Z,5.6
2022-12-16T19:02:42.837Z,5.6
2022-12-16T19:08:20.456Z,5.6
2022-12-16T19:24:41.638Z,5.4
2022-12-16T23:35:43.619Z,4
2022-12-16T23:41:09.459Z,3.9
2022-12-16T23:46:55.606Z,3.8
2022-12-16T23:52:20.577Z,3.7
2022-12-16T23:58:01.075Z,3.6
